sensor_id;sensor_type;location;lat;lon;timestamp;P1;durP1;ratioP1;P2;durP2;ratioP2
84486;SDS011;74710;48.436;10.602;2024-01-10T00:01:01;11.25;;;4.80;;
84486;SDS011;74710;48.436;10.602;2024-01-10T00:03:29;10.70;;;4.60;;
84486;SDS011;74710;48.436;10.602;2024-01-10T00:05:56;16.10;;;6.15;;
84486;SDS011;74710;48.436;10.602;2024-01-10T00:08:22;11.57;;;4.25;;
84486;SDS011;74710;48.436;10.602;2024-01-10T00:10:49;16.77;;;5.70;;
84486;SDS011;74710;48.436;10.602;2024-01-10T00:13:16;15.65;;;6.00;;
84486;SDS011;74710;48.436;10.602;2024-01-10T00:15:42;11.65;;;4.97;;
84486;SDS011;74710;48.436;10.602;2024-01-10T00:18:09;14.07;;;4.55;;
84486;SDS011;74710;48.436;10.602;2024-01-10T00:20:35;9.38;;;4.32;;
84486;SDS011;74710;48.436;10.602;2024-01-10T00:23:02;13.95;;;5.43;;
84486;SDS011;74710;48.436;10.602;2024-01-10T00:25:29;7.88;;;4.13;;
84486;SDS011;74710;48.436;10.602;2024-01-10T00:27:55;13.45;;;4.63;;
84486;SDS011;74710;48.436;10.602;2024-01-10T00:30:22;11.20;;;4.63;;
84486;SDS011;74710;48.436;10.602;2024-01-10T00:32:48;8.85;;;3.90;;
84486;SDS011;74710;48.436;10.602;2024-01-10T00:35:15;12.38;;;4.40;;
84486;SDS011;74710;48.436;10.602;2024-01-10T00:37:42;9.88;;;4.03;;
84486;SDS011;74710;48.436;10.602;2024-01-10T00:40:09;14.05;;;5.80;;
84486;SDS011;74710;48.436;10.602;2024-01-10T00:42:35;12.85;;;4.55;;
84486;SDS011;74710;48.436;10.602;2024-01-10T00:45:02;16.17;;;5.28;;
84486;SDS011;74710;48.436;10.602;2024-01-10T00:47:29;10.75;;;4.63;;
84486;SDS011;74710;48.436;10.602;2024-01-10T00:49:55;15.35;;;4.88;;
84486;SDS011;74710;48.436;10.602;2024-01-10T00:52:22;13.48;;;5.10;;
84486;SDS011;74710;48.436;10.602;2024-01-10T00:54:48;11.45;;;4.00;;
84486;SDS011;74710;48.436;10.602;2024-01-10T00:57:15;10.88;;;4.57;;
84486;SDS011;74710;48.436;10.602;2024-01-10T00:59:42;13.10;;;4.78;;
84486;SDS011;74710;48.436;10.602;2024-01-10T01:02:08;10.70;;;4.07;;
84486;SDS011;74710;48.436;10.602;2024-01-10T01:04:35;11.68;;;4.63;;
84486;SDS011;74710;48.436;10.602;2024-01-10T01:07:01;14.45;;;4.82;;
84486;SDS011;74710;48.436;10.602;2024-01-10T01:09:28;13.68;;;4.30;;
84486;SDS011;74710;48.436;10.602;2024-01-10T01:11:55;10.15;;;4.10;;
84486;SDS011;74710;48.436;10.602;2024-01-10T01:14:21;12.32;;;4.10;;
84486;SDS011;74710;48.436;10.602;2024-01-10T01:16:48;8.40;;;4.53;;
84486;SDS011;74710;48.436;10.602;2024-01-10T01:19:14;11.85;;;4.80;;
84486;SDS011;74710;48.436;10.602;2024-01-10T01:21:41;8.13;;;3.17;;
84486;SDS011;74710;48.436;10.602;2024-01-10T01:24:08;17.25;;;4.60;;
84486;SDS011;74710;48.436;10.602;2024-01-10T01:26:35;12.75;;;4.85;;
84486;SDS011;74710;48.436;10.602;2024-01-10T01:29:01;10.20;;;4.55;;
84486;SDS011;74710;48.436;10.602;2024-01-10T01:31:29;9.20;;;3.53;;
84486;SDS011;74710;48.436;10.602;2024-01-10T01:33:56;15.50;;;4.75;;
84486;SDS011;74710;48.436;10.602;2024-01-10T01:36:22;13.77;;;5.30;;
84486;SDS011;74710;48.436;10.602;2024-01-10T01:38:49;10.52;;;4.95;;
84486;SDS011;74710;48.436;10.602;2024-01-10T01:41:15;14.70;;;5.45;;
84486;SDS011;74710;48.436;10.602;2024-01-10T01:43:42;12.52;;;6.03;;
84486;SDS011;74710;48.436;10.602;2024-01-10T01:46:09;10.52;;;4.88;;
84486;SDS011;74710;48.436;10.602;2024-01-10T01:48:36;11.25;;;5.93;;
84486;SDS011;74710;48.436;10.602;2024-01-10T01:51:06;11.40;;;5.10;;
84486;SDS011;74710;48.436;10.602;2024-01-10T01:53:33;12.40;;;5.95;;
84486;SDS011;74710;48.436;10.602;2024-01-10T01:56:02;19.73;;;6.15;;
84486;SDS011;74710;48.436;10.602;2024-01-10T01:58:30;14.43;;;5.53;;
84486;SDS011;74710;48.436;10.602;2024-01-10T02:00:57;11.55;;;5.63;;
84486;SDS011;74710;48.436;10.602;2024-01-10T02:03:24;24.55;;;5.53;;
84486;SDS011;74710;48.436;10.602;2024-01-10T02:05:53;21.70;;;4.65;;
84486;SDS011;74710;48.436;10.602;2024-01-10T02:08:20;16.83;;;6.47;;
84486;SDS011;74710;48.436;10.602;2024-01-10T02:10:46;11.45;;;4.68;;
84486;SDS011;74710;48.436;10.602;2024-01-10T02:13:13;14.50;;;6.47;;
84486;SDS011;74710;48.436;10.602;2024-01-10T02:15:40;18.17;;;6.28;;
84486;SDS011;74710;48.436;10.602;2024-01-10T02:18:07;15.07;;;6.35;;
84486;SDS011;74710;48.436;10.602;2024-01-10T02:20:33;10.82;;;5.32;;
84486;SDS011;74710;48.436;10.602;2024-01-10T02:23:00;9.95;;;4.80;;
84486;SDS011;74710;48.436;10.602;2024-01-10T02:25:26;13.55;;;5.20;;
84486;SDS011;74710;48.436;10.602;2024-01-10T02:27:53;13.80;;;5.90;;
84486;SDS011;74710;48.436;10.602;2024-01-10T02:30:19;11.65;;;5.03;;
84486;SDS011;74710;48.436;10.602;2024-01-10T02:32:46;8.52;;;3.90;;
84486;SDS011;74710;48.436;10.602;2024-01-10T02:35:13;17.65;;;5.85;;
84486;SDS011;74710;48.436;10.602;2024-01-10T02:37:39;8.50;;;4.22;;
84486;SDS011;74710;48.436;10.602;2024-01-10T02:40:07;12.10;;;5.03;;
84486;SDS011;74710;48.436;10.602;2024-01-10T02:42:34;9.77;;;3.88;;
84486;SDS011;74710;48.436;10.602;2024-01-10T02:45:01;11.07;;;4.63;;
84486;SDS011;74710;48.436;10.602;2024-01-10T02:47:28;11.10;;;5.05;;
84486;SDS011;74710;48.436;10.602;2024-01-10T02:49:55;11.90;;;5.18;;
84486;SDS011;74710;48.436;10.602;2024-01-10T02:52:22;8.75;;;4.65;;
84486;SDS011;74710;48.436;10.602;2024-01-10T02:54:48;10.40;;;4.38;;
84486;SDS011;74710;48.436;10.602;2024-01-10T02:57:15;10.25;;;4.32;;
84486;SDS011;74710;48.436;10.602;2024-01-10T02:59:41;15.13;;;5.63;;
84486;SDS011;74710;48.436;10.602;2024-01-10T03:02:08;14.57;;;4.72;;
84486;SDS011;74710;48.436;10.602;2024-01-10T03:04:35;12.20;;;4.32;;
84486;SDS011;74710;48.436;10.602;2024-01-10T03:07:02;12.80;;;4.93;;
84486;SDS011;74710;48.436;10.602;2024-01-10T03:09:28;11.82;;;5.00;;
84486;SDS011;74710;48.436;10.602;2024-01-10T03:11:55;11.25;;;5.03;;
84486;SDS011;74710;48.436;10.602;2024-01-10T03:14:21;8.95;;;3.95;;
84486;SDS011;74710;48.436;10.602;2024-01-10T03:16:49;11.90;;;4.60;;
84486;SDS011;74710;48.436;10.602;2024-01-10T03:19:15;12.30;;;5.10;;
84486;SDS011;74710;48.436;10.602;2024-01-10T03:21:42;11.85;;;4.65;;
84486;SDS011;74710;48.436;10.602;2024-01-10T03:24:08;15.43;;;5.32;;
84486;SDS011;74710;48.436;10.602;2024-01-10T03:26:35;8.43;;;4.30;;
84486;SDS011;74710;48.436;10.602;2024-01-10T03:29:02;15.82;;;5.45;;
84486;SDS011;74710;48.436;10.602;2024-01-10T03:31:29;13.13;;;6.45;;
84486;SDS011;74710;48.436;10.602;2024-01-10T03:33:57;11.45;;;5.43;;
84486;SDS011;74710;48.436;10.602;2024-01-10T03:36:25;15.15;;;5.80;;
84486;SDS011;74710;48.436;10.602;2024-01-10T03:38:51;16.95;;;5.28;;
84486;SDS011;74710;48.436;10.602;2024-01-10T03:41:19;19.42;;;6.55;;
84486;SDS011;74710;48.436;10.602;2024-01-10T03:43:46;11.43;;;4.30;;
84486;SDS011;74710;48.436;10.602;2024-01-10T03:46:12;14.05;;;6.30;;
84486;SDS011;74710;48.436;10.602;2024-01-10T03:48:39;16.90;;;6.55;;
84486;SDS011;74710;48.436;10.602;2024-01-10T03:51:15;11.57;;;5.82;;
84486;SDS011;74710;48.436;10.602;2024-01-10T03:53:42;13.95;;;5.53;;
84486;SDS011;74710;48.436;10.602;2024-01-10T03:56:09;12.27;;;4.57;;
84486;SDS011;74710;48.436;10.602;2024-01-10T03:58:36;13.90;;;5.25;;
84486;SDS011;74710;48.436;10.602;2024-01-10T04:01:06;18.10;;;6.88;;
84486;SDS011;74710;48.436;10.602;2024-01-10T04:03:34;13.68;;;4.90;;
84486;SDS011;74710;48.436;10.602;2024-01-10T04:06:01;12.50;;;6.15;;
84486;SDS011;74710;48.436;10.602;2024-01-10T04:08:28;18.67;;;6.30;;
84486;SDS011;74710;48.436;10.602;2024-01-10T04:10:55;15.68;;;5.40;;
84486;SDS011;74710;48.436;10.602;2024-01-10T04:13:22;15.63;;;5.97;;
84486;SDS011;74710;48.436;10.602;2024-01-10T04:15:48;13.45;;;4.95;;
84486;SDS011;74710;48.436;10.602;2024-01-10T04:18:15;18.80;;;7.05;;
84486;SDS011;74710;48.436;10.602;2024-01-10T04:20:43;14.10;;;5.95;;
84486;SDS011;74710;48.436;10.602;2024-01-10T04:23:10;11.57;;;5.72;;
84486;SDS011;74710;48.436;10.602;2024-01-10T04:25:37;19.92;;;5.95;;
84486;SDS011;74710;48.436;10.602;2024-01-10T04:28:04;16.75;;;6.18;;
84486;SDS011;74710;48.436;10.602;2024-01-10T04:30:31;17.20;;;5.95;;
84486;SDS011;74710;48.436;10.602;2024-01-10T04:32:57;12.75;;;6.45;;
84486;SDS011;74710;48.436;10.602;2024-01-10T04:35:24;22.40;;;7.45;;
84486;SDS011;74710;48.436;10.602;2024-01-10T04:37:51;15.60;;;6.82;;
84486;SDS011;74710;48.436;10.602;2024-01-10T04:40:17;25.45;;;6.70;;
84486;SDS011;74710;48.436;10.602;2024-01-10T04:42:44;19.38;;;6.20;;
84486;SDS011;74710;48.436;10.602;2024-01-10T04:45:11;16.08;;;5.95;;
84486;SDS011;74710;48.436;10.602;2024-01-10T04:47:37;18.35;;;7.40;;
84486;SDS011;74710;48.436;10.602;2024-01-10T04:50:04;11.85;;;5.80;;
84486;SDS011;74710;48.436;10.602;2024-01-10T04:52:34;17.33;;;6.88;;
84486;SDS011;74710;48.436;10.602;2024-01-10T04:55:01;19.25;;;7.55;;
84486;SDS011;74710;48.436;10.602;2024-01-10T04:57:29;16.42;;;7.30;;
84486;SDS011;74710;48.436;10.602;2024-01-10T04:59:56;22.77;;;8.02;;
84486;SDS011;74710;48.436;10.602;2024-01-10T05:02:22;14.85;;;5.75;;
84486;SDS011;74710;48.436;10.602;2024-01-10T05:04:49;16.20;;;6.63;;
84486;SDS011;74710;48.436;10.602;2024-01-10T05:07:16;21.13;;;7.40;;
84486;SDS011;74710;48.436;10.602;2024-01-10T05:09:43;28.67;;;8.90;;
84486;SDS011;74710;48.436;10.602;2024-01-10T05:12:09;18.80;;;6.68;;
84486;SDS011;74710;48.436;10.602;2024-01-10T05:14:36;30.92;;;8.98;;
84486;SDS011;74710;48.436;10.602;2024-01-10T05:17:02;20.17;;;7.25;;
84486;SDS011;74710;48.436;10.602;2024-01-10T05:19:29;18.35;;;6.70;;
84486;SDS011;74710;48.436;10.602;2024-01-10T05:21:56;22.63;;;7.63;;
84486;SDS011;74710;48.436;10.602;2024-01-10T05:24:27;19.95;;;7.97;;
84486;SDS011;74710;48.436;10.602;2024-01-10T05:26:54;21.48;;;8.23;;
84486;SDS011;74710;48.436;10.602;2024-01-10T05:29:20;26.08;;;10.18;;
84486;SDS011;74710;48.436;10.602;2024-01-10T05:31:48;25.13;;;9.23;;
84486;SDS011;74710;48.436;10.602;2024-01-10T05:34:15;26.10;;;9.73;;
84486;SDS011;74710;48.436;10.602;2024-01-10T05:36:43;21.00;;;9.13;;
84486;SDS011;74710;48.436;10.602;2024-01-10T05:39:09;23.90;;;9.05;;
84486;SDS011;74710;48.436;10.602;2024-01-10T05:41:36;19.50;;;6.63;;
84486;SDS011;74710;48.436;10.602;2024-01-10T05:44:06;20.45;;;8.13;;
84486;SDS011;74710;48.436;10.602;2024-01-10T05:46:32;19.60;;;7.72;;
84486;SDS011;74710;48.436;10.602;2024-01-10T05:48:59;21.42;;;8.85;;
84486;SDS011;74710;48.436;10.602;2024-01-10T05:51:26;21.40;;;7.50;;
84486;SDS011;74710;48.436;10.602;2024-01-10T05:53:52;22.55;;;8.32;;
84486;SDS011;74710;48.436;10.602;2024-01-10T05:56:19;19.55;;;7.30;;
84486;SDS011;74710;48.436;10.602;2024-01-10T05:58:46;20.00;;;7.40;;
84486;SDS011;74710;48.436;10.602;2024-01-10T06:01:12;22.88;;;7.53;;
84486;SDS011;74710;48.436;10.602;2024-01-10T06:03:39;17.77;;;7.30;;
84486;SDS011;74710;48.436;10.602;2024-01-10T06:06:06;24.88;;;8.32;;
84486;SDS011;74710;48.436;10.602;2024-01-10T06:08:33;31.02;;;8.13;;
84486;SDS011;74710;48.436;10.602;2024-01-10T06:11:01;22.60;;;6.95;;
84486;SDS011;74710;48.436;10.602;2024-01-10T06:13:28;24.80;;;8.70;;
84486;SDS011;74710;48.436;10.602;2024-01-10T06:16:11;18.95;;;8.63;;
84486;SDS011;74710;48.436;10.602;2024-01-10T06:18:39;18.50;;;7.60;;
84486;SDS011;74710;48.436;10.602;2024-01-10T06:21:06;20.05;;;8.02;;
84486;SDS011;74710;48.436;10.602;2024-01-10T06:23:33;21.17;;;7.88;;
84486;SDS011;74710;48.436;10.602;2024-01-10T06:25:59;26.27;;;8.70;;
84486;SDS011;74710;48.436;10.602;2024-01-10T06:28:26;21.40;;;7.43;;
84486;SDS011;74710;48.436;10.602;2024-01-10T06:30:53;20.83;;;8.52;;
84486;SDS011;74710;48.436;10.602;2024-01-10T06:33:19;22.83;;;8.38;;
84486;SDS011;74710;48.436;10.602;2024-01-10T06:35:46;21.48;;;9.35;;
84486;SDS011;74710;48.436;10.602;2024-01-10T06:38:13;21.10;;;8.70;;
84486;SDS011;74710;48.436;10.602;2024-01-10T06:40:39;22.83;;;9.77;;
84486;SDS011;74710;48.436;10.602;2024-01-10T06:43:07;26.70;;;8.25;;
84486;SDS011;74710;48.436;10.602;2024-01-10T06:45:34;18.13;;;8.88;;
84486;SDS011;74710;48.436;10.602;2024-01-10T06:48:01;20.55;;;7.82;;
84486;SDS011;74710;48.436;10.602;2024-01-10T06:50:27;21.50;;;8.45;;
84486;SDS011;74710;48.436;10.602;2024-01-10T06:52:54;21.15;;;7.60;;
84486;SDS011;74710;48.436;10.602;2024-01-10T06:55:21;24.27;;;8.10;;
84486;SDS011;74710;48.436;10.602;2024-01-10T06:57:48;20.55;;;8.25;;
84486;SDS011;74710;48.436;10.602;2024-01-10T07:00:17;23.73;;;8.90;;
84486;SDS011;74710;48.436;10.602;2024-01-10T07:02:44;21.15;;;8.45;;
84486;SDS011;74710;48.436;10.602;2024-01-10T07:05:11;21.23;;;8.25;;
84486;SDS011;74710;48.436;10.602;2024-01-10T07:07:37;27.00;;;7.63;;
84486;SDS011;74710;48.436;10.602;2024-01-10T07:10:04;31.02;;;9.40;;
84486;SDS011;74710;48.436;10.602;2024-01-10T07:12:31;24.55;;;8.48;;
84486;SDS011;74710;48.436;10.602;2024-01-10T07:14:58;23.35;;;8.45;;
84486;SDS011;74710;48.436;10.602;2024-01-10T07:17:24;24.17;;;8.77;;
84486;SDS011;74710;48.436;10.602;2024-01-10T07:19:51;24.33;;;9.20;;
84486;SDS011;74710;48.436;10.602;2024-01-10T07:22:18;29.85;;;10.18;;
84486;SDS011;74710;48.436;10.602;2024-01-10T07:24:44;21.08;;;8.90;;
84486;SDS011;74710;48.436;10.602;2024-01-10T07:27:12;19.50;;;8.57;;
84486;SDS011;74710;48.436;10.602;2024-01-10T07:29:41;21.30;;;8.80;;
84486;SDS011;74710;48.436;10.602;2024-01-10T07:32:07;22.10;;;7.50;;
84486;SDS011;74710;48.436;10.602;2024-01-10T07:34:37;19.88;;;9.50;;
84486;SDS011;74710;48.436;10.602;2024-01-10T07:37:04;35.47;;;10.00;;
84486;SDS011;74710;48.436;10.602;2024-01-10T07:39:31;25.08;;;9.50;;
84486;SDS011;74710;48.436;10.602;2024-01-10T07:41:58;21.25;;;8.73;;
84486;SDS011;74710;48.436;10.602;2024-01-10T07:44:24;23.83;;;9.40;;
84486;SDS011;74710;48.436;10.602;2024-01-10T07:46:52;30.23;;;9.98;;
84486;SDS011;74710;48.436;10.602;2024-01-10T07:49:21;24.92;;;7.20;;
84486;SDS011;74710;48.436;10.602;2024-01-10T07:51:48;31.85;;;9.45;;
84486;SDS011;74710;48.436;10.602;2024-01-10T07:54:14;29.55;;;10.05;;
84486;SDS011;74710;48.436;10.602;2024-01-10T07:56:41;24.20;;;8.75;;
84486;SDS011;74710;48.436;10.602;2024-01-10T07:59:07;22.13;;;9.00;;
84486;SDS011;74710;48.436;10.602;2024-01-10T08:01:34;24.60;;;8.68;;
84486;SDS011;74710;48.436;10.602;2024-01-10T08:04:01;22.42;;;8.98;;
84486;SDS011;74710;48.436;10.602;2024-01-10T08:06:27;28.42;;;8.85;;
84486;SDS011;74710;48.436;10.602;2024-01-10T08:08:59;27.83;;;9.52;;
84486;SDS011;74710;48.436;10.602;2024-01-10T08:11:25;26.20;;;10.50;;
84486;SDS011;74710;48.436;10.602;2024-01-10T08:13:52;24.38;;;8.63;;
84486;SDS011;74710;48.436;10.602;2024-01-10T08:16:19;20.48;;;9.43;;
84486;SDS011;74710;48.436;10.602;2024-01-10T08:18:45;25.63;;;9.85;;
84486;SDS011;74710;48.436;10.602;2024-01-10T08:21:12;34.78;;;11.13;;
84486;SDS011;74710;48.436;10.602;2024-01-10T08:23:38;28.40;;;10.60;;
84486;SDS011;74710;48.436;10.602;2024-01-10T08:26:08;28.63;;;9.40;;
84486;SDS011;74710;48.436;10.602;2024-01-10T08:28:35;26.25;;;10.05;;
84486;SDS011;74710;48.436;10.602;2024-01-10T08:31:01;21.08;;;7.57;;
84486;SDS011;74710;48.436;10.602;2024-01-10T08:33:30;31.70;;;11.15;;
84486;SDS011;74710;48.436;10.602;2024-01-10T08:35:57;24.83;;;9.40;;
84486;SDS011;74710;48.436;10.602;2024-01-10T08:38:25;28.70;;;10.88;;
84486;SDS011;74710;48.436;10.602;2024-01-10T08:40:52;21.90;;;8.95;;
84486;SDS011;74710;48.436;10.602;2024-01-10T08:43:19;22.70;;;9.95;;
84486;SDS011;74710;48.436;10.602;2024-01-10T08:45:46;25.60;;;9.43;;
84486;SDS011;74710;48.436;10.602;2024-01-10T08:48:13;30.05;;;10.13;;
84486;SDS011;74710;48.436;10.602;2024-01-10T08:50:40;25.38;;;9.77;;
84486;SDS011;74710;48.436;10.602;2024-01-10T08:53:07;28.58;;;9.40;;
84486;SDS011;74710;48.436;10.602;2024-01-10T08:55:34;26.40;;;9.70;;
84486;SDS011;74710;48.436;10.602;2024-01-10T08:58:03;23.05;;;8.52;;
84486;SDS011;74710;48.436;10.602;2024-01-10T09:00:30;25.80;;;9.65;;
84486;SDS011;74710;48.436;10.602;2024-01-10T09:02:56;20.40;;;8.38;;
84486;SDS011;74710;48.436;10.602;2024-01-10T09:05:23;31.38;;;10.75;;
84486;SDS011;74710;48.436;10.602;2024-01-10T09:07:51;26.48;;;9.63;;
84486;SDS011;74710;48.436;10.602;2024-01-10T09:10:17;28.70;;;9.82;;
84486;SDS011;74710;48.436;10.602;2024-01-10T09:12:44;24.90;;;11.10;;
84486;SDS011;74710;48.436;10.602;2024-01-10T09:15:13;26.13;;;9.27;;
84486;SDS011;74710;48.436;10.602;2024-01-10T09:17:41;28.67;;;10.63;;
84486;SDS011;74710;48.436;10.602;2024-01-10T09:20:08;22.50;;;9.60;;
84486;SDS011;74710;48.436;10.602;2024-01-10T09:22:35;26.00;;;10.25;;
84486;SDS011;74710;48.436;10.602;2024-01-10T09:25:02;34.22;;;10.23;;
84486;SDS011;74710;48.436;10.602;2024-01-10T09:27:34;28.60;;;10.18;;
84486;SDS011;74710;48.436;10.602;2024-01-10T09:30:01;38.67;;;12.10;;
84486;SDS011;74710;48.436;10.602;2024-01-10T09:32:28;31.00;;;10.02;;
84486;SDS011;74710;48.436;10.602;2024-01-10T09:34:56;28.88;;;10.23;;
84486;SDS011;74710;48.436;10.602;2024-01-10T09:37:23;25.20;;;10.25;;
84486;SDS011;74710;48.436;10.602;2024-01-10T09:39:50;30.25;;;10.02;;
84486;SDS011;74710;48.436;10.602;2024-01-10T09:42:16;29.20;;;10.65;;
84486;SDS011;74710;48.436;10.602;2024-01-10T09:44:43;28.83;;;10.63;;
84486;SDS011;74710;48.436;10.602;2024-01-10T09:47:10;32.30;;;11.70;;
84486;SDS011;74710;48.436;10.602;2024-01-10T09:49:39;30.80;;;11.48;;
84486;SDS011;74710;48.436;10.602;2024-01-10T09:52:07;30.45;;;10.88;;
84486;SDS011;74710;48.436;10.602;2024-01-10T09:54:37;31.27;;;10.93;;
84486;SDS011;74710;48.436;10.602;2024-01-10T09:57:04;31.60;;;11.70;;
84486;SDS011;74710;48.436;10.602;2024-01-10T09:59:32;27.88;;;10.50;;
84486;SDS011;74710;48.436;10.602;2024-01-10T10:01:58;34.25;;;11.73;;
84486;SDS011;74710;48.436;10.602;2024-01-10T10:04:27;28.13;;;10.20;;
84486;SDS011;74710;48.436;10.602;2024-01-10T10:07:00;25.33;;;9.15;;
84486;SDS011;74710;48.436;10.602;2024-01-10T10:09:28;26.88;;;9.57;;
84486;SDS011;74710;48.436;10.602;2024-01-10T10:11:56;28.35;;;10.18;;
84486;SDS011;74710;48.436;10.602;2024-01-10T10:14:24;29.83;;;11.70;;
84486;SDS011;74710;48.436;10.602;2024-01-10T10:16:52;24.00;;;9.68;;
84486;SDS011;74710;48.436;10.602;2024-01-10T10:19:25;27.83;;;9.88;;
84486;SDS011;74710;48.436;10.602;2024-01-10T10:22:08;23.48;;;10.63;;
84486;SDS011;74710;48.436;10.602;2024-01-10T10:24:35;28.77;;;10.20;;
84486;SDS011;74710;48.436;10.602;2024-01-10T10:27:07;33.35;;;10.52;;
84486;SDS011;74710;48.436;10.602;2024-01-10T10:29:33;30.60;;;10.63;;
84486;SDS011;74710;48.436;10.602;2024-01-10T10:32:01;29.45;;;10.88;;
84486;SDS011;74710;48.436;10.602;2024-01-10T10:34:32;27.13;;;9.65;;
84486;SDS011;74710;48.436;10.602;2024-01-10T10:36:58;26.15;;;9.80;;
84486;SDS011;74710;48.436;10.602;2024-01-10T10:39:25;31.90;;;10.48;;
84486;SDS011;74710;48.436;10.602;2024-01-10T10:41:52;26.70;;;10.73;;
84486;SDS011;74710;48.436;10.602;2024-01-10T10:44:22;36.58;;;10.90;;
84486;SDS011;74710;48.436;10.602;2024-01-10T10:46:52;32.50;;;11.48;;
84486;SDS011;74710;48.436;10.602;2024-01-10T10:49:36;25.13;;;9.80;;
84486;SDS011;74710;48.436;10.602;2024-01-10T10:52:10;31.17;;;11.90;;
84486;SDS011;74710;48.436;10.602;2024-01-10T10:54:37;31.88;;;11.63;;
84486;SDS011;74710;48.436;10.602;2024-01-10T10:57:04;28.65;;;11.52;;
84486;SDS011;74710;48.436;10.602;2024-01-10T10:59:31;31.85;;;11.50;;
84486;SDS011;74710;48.436;10.602;2024-01-10T11:02:00;30.92;;;11.48;;
84486;SDS011;74710;48.436;10.602;2024-01-10T11:04:26;33.50;;;11.77;;
84486;SDS011;74710;48.436;10.602;2024-01-10T11:06:54;33.95;;;12.27;;
84486;SDS011;74710;48.436;10.602;2024-01-10T11:09:21;37.25;;;11.93;;
84486;SDS011;74710;48.436;10.602;2024-01-10T11:17:33;29.00;;;10.98;;
84486;SDS011;74710;48.436;10.602;2024-01-10T11:20:18;29.58;;;11.82;;
84486;SDS011;74710;48.436;10.602;2024-01-10T11:23:00;30.05;;;10.65;;
84486;SDS011;74710;48.436;10.602;2024-01-10T11:25:30;24.42;;;10.18;;
84486;SDS011;74710;48.436;10.602;2024-01-10T11:28:02;26.13;;;11.35;;
84486;SDS011;74710;48.436;10.602;2024-01-10T11:30:36;34.33;;;12.27;;
84486;SDS011;74710;48.436;10.602;2024-01-10T11:33:22;30.20;;;10.07;;
84486;SDS011;74710;48.436;10.602;2024-01-10T11:38:41;24.50;;;8.90;;
84486;SDS011;74710;48.436;10.602;2024-01-10T11:41:11;28.63;;;11.52;;
84486;SDS011;74710;48.436;10.602;2024-01-10T11:43:38;28.85;;;11.77;;
84486;SDS011;74710;48.436;10.602;2024-01-10T11:46:06;29.55;;;11.60;;
84486;SDS011;74710;48.436;10.602;2024-01-10T11:48:33;24.63;;;9.93;;
84486;SDS011;74710;48.436;10.602;2024-01-10T11:51:00;31.08;;;11.40;;
84486;SDS011;74710;48.436;10.602;2024-01-10T11:53:41;27.88;;;9.95;;
84486;SDS011;74710;48.436;10.602;2024-01-10T11:56:10;23.70;;;10.73;;
84486;SDS011;74710;48.436;10.602;2024-01-10T11:59:01;29.15;;;10.50;;
84486;SDS011;74710;48.436;10.602;2024-01-10T12:01:31;34.00;;;11.38;;
84486;SDS011;74710;48.436;10.602;2024-01-10T12:03:58;29.92;;;11.15;;
84486;SDS011;74710;48.436;10.602;2024-01-10T12:06:40;25.40;;;8.68;;
84486;SDS011;74710;48.436;10.602;2024-01-10T12:09:07;31.95;;;11.20;;
84486;SDS011;74710;48.436;10.602;2024-01-10T12:11:36;26.73;;;10.23;;
84486;SDS011;74710;48.436;10.602;2024-01-10T12:14:02;31.10;;;10.82;;
84486;SDS011;74710;48.436;10.602;2024-01-10T12:16:29;26.48;;;10.77;;
84486;SDS011;74710;48.436;10.602;2024-01-10T12:18:56;26.45;;;10.00;;
84486;SDS011;74710;48.436;10.602;2024-01-10T12:21:22;29.90;;;10.82;;
84486;SDS011;74710;48.436;10.602;2024-01-10T12:23:49;27.17;;;10.45;;
84486;SDS011;74710;48.436;10.602;2024-01-10T12:26:17;30.20;;;10.52;;
84486;SDS011;74710;48.436;10.602;2024-01-10T12:28:54;25.98;;;11.48;;
84486;SDS011;74710;48.436;10.602;2024-01-10T12:31:21;28.83;;;10.95;;
84486;SDS011;74710;48.436;10.602;2024-01-10T12:33:51;34.08;;;11.20;;
84486;SDS011;74710;48.436;10.602;2024-01-10T12:36:18;27.98;;;10.73;;
84486;SDS011;74710;48.436;10.602;2024-01-10T12:38:46;34.35;;;11.60;;
84486;SDS011;74710;48.436;10.602;2024-01-10T12:41:17;27.38;;;10.07;;
84486;SDS011;74710;48.436;10.602;2024-01-10T12:43:53;26.08;;;10.95;;
84486;SDS011;74710;48.436;10.602;2024-01-10T12:46:22;28.42;;;10.57;;
84486;SDS011;74710;48.436;10.602;2024-01-10T12:49:03;27.85;;;10.85;;
84486;SDS011;74710;48.436;10.602;2024-01-10T12:51:31;35.75;;;11.50;;
84486;SDS011;74710;48.436;10.602;2024-01-10T12:53:59;32.83;;;12.82;;
84486;SDS011;74710;48.436;10.602;2024-01-10T12:56:26;28.17;;;10.40;;
84486;SDS011;74710;48.436;10.602;2024-01-10T12:58:53;28.98;;;10.52;;
84486;SDS011;74710;48.436;10.602;2024-01-10T13:01:22;32.10;;;11.93;;
84486;SDS011;74710;48.436;10.602;2024-01-10T13:03:49;28.73;;;11.18;;
84486;SDS011;74710;48.436;10.602;2024-01-10T13:06:16;27.17;;;9.73;;
84486;SDS011;74710;48.436;10.602;2024-01-10T13:08:45;27.13;;;9.73;;
84486;SDS011;74710;48.436;10.602;2024-01-10T13:11:12;28.63;;;10.32;;
84486;SDS011;74710;48.436;10.602;2024-01-10T13:13:40;31.52;;;11.38;;
84486;SDS011;74710;48.436;10.602;2024-01-10T13:16:07;30.42;;;10.38;;
84486;SDS011;74710;48.436;10.602;2024-01-10T13:18:37;32.38;;;12.20;;
84486;SDS011;74710;48.436;10.602;2024-01-10T13:21:04;32.75;;;12.00;;
84486;SDS011;74710;48.436;10.602;2024-01-10T13:23:31;30.83;;;11.98;;
84486;SDS011;74710;48.436;10.602;2024-01-10T13:25:57;30.25;;;13.00;;
84486;SDS011;74710;48.436;10.602;2024-01-10T13:28:25;30.58;;;12.20;;
84486;SDS011;74710;48.436;10.602;2024-01-10T13:30:54;29.92;;;12.52;;
84486;SDS011;74710;48.436;10.602;2024-01-10T13:33:22;30.00;;;11.55;;
84486;SDS011;74710;48.436;10.602;2024-01-10T13:35:49;28.23;;;11.95;;
84486;SDS011;74710;48.436;10.602;2024-01-10T13:38:16;29.17;;;11.98;;
84486;SDS011;74710;48.436;10.602;2024-01-10T13:40:43;28.80;;;12.25;;
84486;SDS011;74710;48.436;10.602;2024-01-10T13:43:10;24.85;;;11.32;;
84486;SDS011;74710;48.436;10.602;2024-01-10T13:45:37;28.13;;;12.00;;
84486;SDS011;74710;48.436;10.602;2024-01-10T13:48:05;27.48;;;11.50;;
84486;SDS011;74710;48.436;10.602;2024-01-10T13:50:32;32.75;;;12.38;;
84486;SDS011;74710;48.436;10.602;2024-01-10T13:52:59;29.23;;;12.13;;
84486;SDS011;74710;48.436;10.602;2024-01-10T13:55:26;26.13;;;11.60;;
84486;SDS011;74710;48.436;10.602;2024-01-10T13:57:52;29.00;;;13.32;;
84486;SDS011;74710;48.436;10.602;2024-01-10T14:00:20;27.13;;;10.80;;
84486;SDS011;74710;48.436;10.602;2024-01-10T14:02:46;29.35;;;10.98;;
84486;SDS011;74710;48.436;10.602;2024-01-10T14:05:13;28.05;;;11.55;;
84486;SDS011;74710;48.436;10.602;2024-01-10T14:07:40;28.13;;;11.25;;
84486;SDS011;74710;48.436;10.602;2024-01-10T14:10:11;25.13;;;10.23;;
84486;SDS011;74710;48.436;10.602;2024-01-10T14:12:37;24.90;;;10.82;;
84486;SDS011;74710;48.436;10.602;2024-01-10T14:15:04;29.38;;;11.52;;
84486;SDS011;74710;48.436;10.602;2024-01-10T14:17:31;27.60;;;10.95;;
84486;SDS011;74710;48.436;10.602;2024-01-10T14:19:58;27.00;;;10.95;;
84486;SDS011;74710;48.436;10.602;2024-01-10T14:22:24;28.70;;;12.02;;
84486;SDS011;74710;48.436;10.602;2024-01-10T14:24:58;27.55;;;10.48;;
84486;SDS011;74710;48.436;10.602;2024-01-10T14:27:28;29.48;;;12.63;;
84486;SDS011;74710;48.436;10.602;2024-01-10T14:29:55;27.85;;;10.43;;